sensor_id;sensor_type;location;lat;lon;timestamp;P1;durP1;ratioP1;P2;durP2;ratioP2
72437;SDS011;60444;43.534;-5.674;2023-12-22T00:01:27;7.50;;;1.50;;
72437;SDS011;60444;43.534;-5.674;2023-12-22T00:03:52;9.13;;;1.40;;
72437;SDS011;60444;43.534;-5.674;2023-12-22T00:06:18;6.80;;;1.37;;
72437;SDS011;60444;43.534;-5.674;2023-12-22T00:08:43;7.85;;;2.17;;
72437;SDS011;60444;43.534;-5.674;2023-12-22T00:11:09;9.07;;;2.00;;
72437;SDS011;60444;43.534;-5.674;2023-12-22T00:13:34;6.40;;;1.40;;
72437;SDS011;60444;43.534;-5.674;2023-12-22T00:16:00;7.03;;;1.40;;
72437;SDS011;60444;43.534;-5.674;2023-12-22T00:18:26;7.85;;;1.55;;
72437;SDS011;60444;43.534;-5.674;2023-12-22T00:20:52;9.32;;;1.75;;
72437;SDS011;60444;43.534;-5.674;2023-12-22T00:23:17;7.10;;;1.47;;
72437;SDS011;60444;43.534;-5.674;2023-12-22T00:25:43;9.27;;;1.27;;
72437;SDS011;60444;43.534;-5.674;2023-12-22T00:28:08;9.88;;;1.88;;
72437;SDS011;60444;43.534;-5.674;2023-12-22T00:30:34;7.23;;;1.43;;
72437;SDS011;60444;43.534;-5.674;2023-12-22T00:32:59;8.90;;;1.33;;
72437;SDS011;60444;43.534;-5.674;2023-12-22T00:35:25;6.10;;;1.10;;
72437;SDS011;60444;43.534;-5.674;2023-12-22T00:37:50;9.50;;;1.80;;
72437;SDS011;60444;43.534;-5.674;2023-12-22T00:40:18;5.90;;;1.00;;
72437;SDS011;60444;43.534;-5.674;2023-12-22T00:42:43;7.13;;;1.40;;
72437;SDS011;60444;43.534;-5.674;2023-12-22T00:45:09;6.97;;;1.30;;
72437;SDS011;60444;43.534;-5.674;2023-12-22T00:47:34;6.30;;;1.43;;
72437;SDS011;60444;43.534;-5.674;2023-12-22T00:50:00;6.93;;;1.02;;
72437;SDS011;60444;43.534;-5.674;2023-12-22T00:52:27;5.97;;;1.52;;
72437;SDS011;60444;43.534;-5.674;2023-12-22T00:54:52;7.17;;;1.20;;
72437;SDS011;60444;43.534;-5.674;2023-12-22T00:57:18;8.10;;;1.20;;
72437;SDS011;60444;43.534;-5.674;2023-12-22T00:59:43;6.77;;;1.10;;
72437;SDS011;60444;43.534;-5.674;2023-12-22T01:02:13;7.28;;;1.17;;
72437;SDS011;60444;43.534;-5.674;2023-12-22T01:04:41;8.20;;;1.60;;
72437;SDS011;60444;43.534;-5.674;2023-12-22T01:07:07;8.40;;;1.40;;
72437;SDS011;60444;43.534;-5.674;2023-12-22T01:09:33;6.77;;;1.47;;
72437;SDS011;60444;43.534;-5.674;2023-12-22T01:11:59;8.65;;;1.45;;
72437;SDS011;60444;43.534;-5.674;2023-12-22T01:14:27;14.88;;;2.38;;
72437;SDS011;60444;43.534;-5.674;2023-12-22T01:16:53;8.25;;;1.38;;
72437;SDS011;60444;43.534;-5.674;2023-12-22T01:19:19;6.73;;;1.30;;
72437;SDS011;60444;43.534;-5.674;2023-12-22T01:21:45;11.82;;;1.60;;
72437;SDS011;60444;43.534;-5.674;2023-12-22T01:24:10;9.20;;;1.67;;
72437;SDS011;60444;43.534;-5.674;2023-12-22T01:26:36;5.68;;;1.35;;
72437;SDS011;60444;43.534;-5.674;2023-12-22T01:29:02;7.50;;;1.33;;
72437;SDS011;60444;43.534;-5.674;2023-12-22T01:31:27;9.20;;;1.20;;
72437;SDS011;60444;43.534;-5.674;2023-12-22T01:33:53;7.00;;;1.20;;
72437;SDS011;60444;43.534;-5.674;2023-12-22T01:36:18;7.80;;;1.30;;
72437;SDS011;60444;43.534;-5.674;2023-12-22T01:38:44;8.60;;;1.55;;
72437;SDS011;60444;43.534;-5.674;2023-12-22T01:41:09;7.27;;;1.30;;
72437;SDS011;60444;43.534;-5.674;2023-12-22T01:43:35;8.70;;;1.20;;
72437;SDS011;60444;43.534;-5.674;2023-12-22T01:46:00;7.50;;;1.50;;
72437;SDS011;60444;43.534;-5.674;2023-12-22T01:48:27;9.93;;;1.40;;
72437;SDS011;60444;43.534;-5.674;2023-12-22T01:50:53;10.00;;;1.52;;
72437;SDS011;60444;43.534;-5.674;2023-12-22T01:53:21;8.93;;;1.58;;
72437;SDS011;60444;43.534;-5.674;2023-12-22T01:55:49;9.05;;;1.50;;
72437;SDS011;60444;43.534;-5.674;2023-12-22T01:58:16;10.23;;;1.47;;
72437;SDS011;60444;43.534;-5.674;2023-12-22T02:00:44;7.65;;;0.90;;
72437;SDS011;60444;43.534;-5.674;2023-12-22T02:03:10;9.55;;;1.42;;
72437;SDS011;60444;43.534;-5.674;2023-12-22T02:05:36;9.93;;;1.53;;
72437;SDS011;60444;43.534;-5.674;2023-12-22T02:08:02;8.53;;;1.30;;
72437;SDS011;60444;43.534;-5.674;2023-12-22T02:10:27;9.55;;;1.20;;
72437;SDS011;60444;43.534;-5.674;2023-12-22T02:12:55;6.83;;;1.03;;
72437;SDS011;60444;43.534;-5.674;2023-12-22T02:15:21;7.53;;;1.40;;
72437;SDS011;60444;43.534;-5.674;2023-12-22T02:20:27;11.02;;;1.80;;
72437;SDS011;60444;43.534;-5.674;2023-12-22T02:22:55;5.75;;;1.05;;
72437;SDS011;60444;43.534;-5.674;2023-12-22T02:25:20;8.93;;;1.43;;
72437;SDS011;60444;43.534;-5.674;2023-12-22T02:27:49;6.30;;;1.45;;
72437;SDS011;60444;43.534;-5.674;2023-12-22T02:30:40;12.07;;;1.33;;
72437;SDS011;60444;43.534;-5.674;2023-12-22T02:33:04;9.77;;;1.40;;
72437;SDS011;60444;43.534;-5.674;2023-12-22T02:35:32;6.43;;;1.25;;
72437;SDS011;60444;43.534;-5.674;2023-12-22T02:38:01;8.68;;;1.55;;
72437;SDS011;60444;43.534;-5.674;2023-12-22T02:40:28;9.40;;;1.48;;
72437;SDS011;60444;43.534;-5.674;2023-12-22T02:42:54;6.63;;;1.13;;
72437;SDS011;60444;43.534;-5.674;2023-12-22T02:45:21;7.43;;;1.27;;
72437;SDS011;60444;43.534;-5.674;2023-12-22T02:47:46;5.95;;;1.20;;
72437;SDS011;60444;43.534;-5.674;2023-12-22T02:50:13;8.23;;;1.70;;
72437;SDS011;60444;43.534;-5.674;2023-12-22T02:52:41;21.75;;;2.88;;
72437;SDS011;60444;43.534;-5.674;2023-12-22T02:55:07;12.55;;;2.30;;
72437;SDS011;60444;43.534;-5.674;2023-12-22T02:57:34;7.63;;;1.02;;
72437;SDS011;60444;43.534;-5.674;2023-12-22T02:59:59;10.47;;;1.40;;
72437;SDS011;60444;43.534;-5.674;2023-12-22T03:02:25;10.50;;;1.70;;
72437;SDS011;60444;43.534;-5.674;2023-12-22T03:04:50;10.30;;;1.63;;
72437;SDS011;60444;43.534;-5.674;2023-12-22T03:07:17;12.65;;;2.00;;
72437;SDS011;60444;43.534;-5.674;2023-12-22T03:09:42;11.73;;;2.30;;
72437;SDS011;60444;43.534;-5.674;2023-12-22T03:12:09;11.55;;;2.35;;
72437;SDS011;60444;43.534;-5.674;2023-12-22T03:14:35;10.05;;;1.23;;
72437;SDS011;60444;43.534;-5.674;2023-12-22T03:17:04;8.27;;;1.40;;
72437;SDS011;60444;43.534;-5.674;2023-12-22T03:19:31;8.63;;;1.77;;
72437;SDS011;60444;43.534;-5.674;2023-12-22T03:21:58;10.48;;;1.60;;
72437;SDS011;60444;43.534;-5.674;2023-12-22T03:24:24;11.15;;;1.48;;
72437;SDS011;60444;43.534;-5.674;2023-12-22T03:26:50;9.85;;;1.73;;
72437;SDS011;60444;43.534;-5.674;2023-12-22T03:29:16;8.40;;;1.30;;
72437;SDS011;60444;43.534;-5.674;2023-12-22T03:31:42;9.63;;;1.90;;
72437;SDS011;60444;43.534;-5.674;2023-12-22T03:34:08;14.30;;;2.50;;
72437;SDS011;60444;43.534;-5.674;2023-12-22T03:36:39;8.10;;;1.73;;
72437;SDS011;60444;43.534;-5.674;2023-12-22T03:39:04;10.10;;;2.20;;
72437;SDS011;60444;43.534;-5.674;2023-12-22T03:41:35;7.88;;;1.60;;
72437;SDS011;60444;43.534;-5.674;2023-12-22T03:44:01;9.70;;;1.80;;
72437;SDS011;60444;43.534;-5.674;2023-12-22T03:46:26;9.77;;;1.60;;
72437;SDS011;60444;43.534;-5.674;2023-12-22T03:48:52;6.90;;;0.97;;
72437;SDS011;60444;43.534;-5.674;2023-12-22T03:51:17;8.63;;;1.57;;
72437;SDS011;60444;43.534;-5.674;2023-12-22T03:53:43;10.48;;;1.48;;
72437;SDS011;60444;43.534;-5.674;2023-12-22T03:56:08;7.40;;;1.50;;
72437;SDS011;60444;43.534;-5.674;2023-12-22T03:58:34;7.73;;;1.60;;
72437;SDS011;60444;43.534;-5.674;2023-12-22T04:01:00;8.15;;;1.40;;
72437;SDS011;60444;43.534;-5.674;2023-12-22T04:03:26;7.28;;;1.30;;
72437;SDS011;60444;43.534;-5.674;2023-12-22T04:05:51;9.73;;;2.00;;
72437;SDS011;60444;43.534;-5.674;2023-12-22T04:08:17;8.07;;;1.70;;
72437;SDS011;60444;43.534;-5.674;2023-12-22T04:10:42;10.70;;;1.63;;
72437;SDS011;60444;43.534;-5.674;2023-12-22T04:13:09;6.83;;;1.43;;
72437;SDS011;60444;43.534;-5.674;2023-12-22T04:15:35;7.13;;;1.55;;
72437;SDS011;60444;43.534;-5.674;2023-12-22T04:18:00;12.87;;;1.80;;
72437;SDS011;60444;43.534;-5.674;2023-12-22T04:20:26;7.20;;;1.40;;
72437;SDS011;60444;43.534;-5.674;2023-12-22T04:22:51;8.52;;;1.35;;
72437;SDS011;60444;43.534;-5.674;2023-12-22T04:25:17;11.07;;;1.23;;
72437;SDS011;60444;43.534;-5.674;2023-12-22T04:27:43;6.38;;;1.35;;
72437;SDS011;60444;43.534;-5.674;2023-12-22T04:30:08;8.07;;;1.17;;
72437;SDS011;60444;43.534;-5.674;2023-12-22T04:32:34;9.45;;;1.90;;
72437;SDS011;60444;43.534;-5.674;2023-12-22T04:35:00;9.77;;;1.67;;
72437;SDS011;60444;43.534;-5.674;2023-12-22T04:37:25;8.50;;;1.35;;
72437;SDS011;60444;43.534;-5.674;2023-12-22T04:39:51;7.57;;;1.57;;
72437;SDS011;60444;43.534;-5.674;2023-12-22T04:42:16;5.57;;;1.10;;
72437;SDS011;60444;43.534;-5.674;2023-12-22T04:44:42;11.80;;;1.80;;
72437;SDS011;60444;43.534;-5.674;2023-12-22T04:47:07;8.67;;;1.40;;
72437;SDS011;60444;43.534;-5.674;2023-12-22T04:49:33;7.70;;;1.40;;
72437;SDS011;60444;43.534;-5.674;2023-12-22T04:51:58;8.30;;;1.10;;
72437;SDS011;60444;43.534;-5.674;2023-12-22T04:54:24;7.80;;;1.60;;
72437;SDS011;60444;43.534;-5.674;2023-12-22T04:56:49;6.20;;;1.10;;
72437;SDS011;60444;43.534;-5.674;2023-12-22T04:59:15;7.57;;;1.57;;
72437;SDS011;60444;43.534;-5.674;2023-12-22T05:01:40;9.52;;;1.50;;
72437;SDS011;60444;43.534;-5.674;2023-12-22T05:04:07;8.83;;;1.43;;
72437;SDS011;60444;43.534;-5.674;2023-12-22T05:06:34;6.93;;;1.33;;
72437;SDS011;60444;43.534;-5.674;2023-12-22T05:09:00;8.35;;;1.50;;
72437;SDS011;60444;43.534;-5.674;2023-12-22T05:11:25;7.50;;;1.30;;
72437;SDS011;60444;43.534;-5.674;2023-12-22T05:13:51;7.10;;;1.13;;
72437;SDS011;60444;43.534;-5.674;2023-12-22T05:16:16;6.70;;;1.10;;
72437;SDS011;60444;43.534;-5.674;2023-12-22T05:18:41;9.45;;;1.50;;
72437;SDS011;60444;43.534;-5.674;2023-12-22T05:21:07;7.73;;;1.00;;
72437;SDS011;60444;43.534;-5.674;2023-12-22T05:23:32;7.63;;;1.77;;
72437;SDS011;60444;43.534;-5.674;2023-12-22T05:25:58;6.45;;;1.00;;
72437;SDS011;60444;43.534;-5.674;2023-12-22T05:28:23;10.73;;;1.63;;
72437;SDS011;60444;43.534;-5.674;2023-12-22T05:30:49;6.17;;;1.30;;
72437;SDS011;60444;43.534;-5.674;2023-12-22T05:33:14;7.97;;;1.70;;
72437;SDS011;60444;43.534;-5.674;2023-12-22T05:35:40;8.68;;;1.30;;
72437;SDS011;60444;43.534;-5.674;2023-12-22T05:38:05;7.43;;;1.50;;
72437;SDS011;60444;43.534;-5.674;2023-12-22T05:40:31;9.53;;;1.43;;
72437;SDS011;60444;43.534;-5.674;2023-12-22T05:42:57;8.75;;;1.60;;
72437;SDS011;60444;43.534;-5.674;2023-12-22T05:45:22;8.40;;;1.10;;
72437;SDS011;60444;43.534;-5.674;2023-12-22T05:47:49;6.95;;;1.23;;
72437;SDS011;60444;43.534;-5.674;2023-12-22T05:50:15;7.65;;;1.58;;
72437;SDS011;60444;43.534;-5.674;2023-12-22T05:52:41;7.85;;;1.40;;
72437;SDS011;60444;43.534;-5.674;2023-12-22T05:55:08;6.57;;;1.00;;
72437;SDS011;60444;43.534;-5.674;2023-12-22T05:57:34;7.43;;;1.10;;
72437;SDS011;60444;43.534;-5.674;2023-12-22T05:59:59;5.97;;;1.00;;
72437;SDS011;60444;43.534;-5.674;2023-12-22T06:02:25;7.32;;;0.80;;
72437;SDS011;60444;43.534;-5.674;2023-12-22T06:04:50;8.60;;;1.70;;
72437;SDS011;60444;43.534;-5.674;2023-12-22T06:07:16;7.90;;;1.48;;
72437;SDS011;60444;43.534;-5.674;2023-12-22T06:09:41;8.30;;;1.10;;
72437;SDS011;60444;43.534;-5.674;2023-12-22T06:12:07;6.10;;;1.20;;
72437;SDS011;60444;43.534;-5.674;2023-12-22T06:14:32;11.27;;;1.53;;
72437;SDS011;60444;43.534;-5.674;2023-12-22T06:17:00;7.03;;;1.17;;
72437;SDS011;60444;43.534;-5.674;2023-12-22T06:19:25;8.77;;;1.00;;
72437;SDS011;60444;43.534;-5.674;2023-12-22T06:21:53;9.57;;;1.58;;
72437;SDS011;60444;43.534;-5.674;2023-12-22T06:24:19;7.43;;;0.90;;
72437;SDS011;60444;43.534;-5.674;2023-12-22T06:26:44;7.20;;;1.50;;
72437;SDS011;60444;43.534;-5.674;2023-12-22T06:29:10;7.93;;;1.10;;
72437;SDS011;60444;43.534;-5.674;2023-12-22T06:31:35;10.13;;;1.37;;
72437;SDS011;60444;43.534;-5.674;2023-12-22T06:34:01;9.60;;;1.27;;
72437;SDS011;60444;43.534;-5.674;2023-12-22T06:36:27;10.50;;;1.70;;
72437;SDS011;60444;43.534;-5.674;2023-12-22T06:38:55;8.93;;;1.40;;
72437;SDS011;60444;43.534;-5.674;2023-12-22T06:41:24;6.33;;;1.00;;
72437;SDS011;60444;43.534;-5.674;2023-12-22T06:43:51;10.48;;;1.15;;
72437;SDS011;60444;43.534;-5.674;2023-12-22T06:48:43;7.70;;;1.43;;
72437;SDS011;60444;43.534;-5.674;2023-12-22T06:51:18;6.03;;;1.10;;
72437;SDS011;60444;43.534;-5.674;2023-12-22T06:53:52;8.25;;;1.45;;
72437;SDS011;60444;43.534;-5.674;2023-12-22T06:56:20;6.68;;;1.20;;
72437;SDS011;60444;43.534;-5.674;2023-12-22T06:58:51;10.05;;;1.20;;
72437;SDS011;60444;43.534;-5.674;2023-12-22T07:01:28;7.70;;;1.37;;
72437;SDS011;60444;43.534;-5.674;2023-12-22T07:03:55;6.05;;;0.98;;
72437;SDS011;60444;43.534;-5.674;2023-12-22T07:06:21;6.57;;;1.33;;
72437;SDS011;60444;43.534;-5.674;2023-12-22T07:14:15;7.87;;;0.97;;
72437;SDS011;60444;43.534;-5.674;2023-12-22T07:16:40;6.45;;;1.33;;
72437;SDS011;60444;43.534;-5.674;2023-12-22T07:19:07;7.75;;;1.30;;
72437;SDS011;60444;43.534;-5.674;2023-12-22T07:21:33;6.23;;;1.10;;
72437;SDS011;60444;43.534;-5.674;2023-12-22T07:23:58;5.95;;;1.02;;
72437;SDS011;60444;43.534;-5.674;2023-12-22T07:26:24;5.33;;;1.27;;
72437;SDS011;60444;43.534;-5.674;2023-12-22T07:28:51;9.10;;;1.23;;
72437;SDS011;60444;43.534;-5.674;2023-12-22T07:31:17;9.85;;;1.98;;
72437;SDS011;60444;43.534;-5.674;2023-12-22T07:33:43;7.70;;;1.30;;
72437;SDS011;60444;43.534;-5.674;2023-12-22T07:36:09;5.65;;;0.90;;
72437;SDS011;60444;43.534;-5.674;2023-12-22T07:38:35;6.70;;;1.30;;
72437;SDS011;60444;43.534;-5.674;2023-12-22T07:41:01;9.60;;;1.52;;
72437;SDS011;60444;43.534;-5.674;2023-12-22T07:43:26;7.63;;;1.30;;
72437;SDS011;60444;43.534;-5.674;2023-12-22T07:45:52;7.20;;;1.33;;
72437;SDS011;60444;43.534;-5.674;2023-12-22T07:48:17;10.90;;;1.90;;
72437;SDS011;60444;43.534;-5.674;2023-12-22T07:50:43;8.20;;;1.30;;
72437;SDS011;60444;43.534;-5.674;2023-12-22T07:53:10;8.15;;;1.40;;
72437;SDS011;60444;43.534;-5.674;2023-12-22T07:55:35;9.30;;;1.30;;
72437;SDS011;60444;43.534;-5.674;2023-12-22T07:58:03;7.10;;;1.40;;
72437;SDS011;60444;43.534;-5.674;2023-12-22T08:00:32;8.73;;;1.17;;
72437;SDS011;60444;43.534;-5.674;2023-12-22T08:02:58;8.35;;;1.75;;
72437;SDS011;60444;43.534;-5.674;2023-12-22T08:05:24;8.37;;;1.20;;
72437;SDS011;60444;43.534;-5.674;2023-12-22T08:07:50;8.57;;;1.33;;
72437;SDS011;60444;43.534;-5.674;2023-12-22T08:10:15;6.53;;;1.10;;
72437;SDS011;60444;43.534;-5.674;2023-12-22T08:12:41;8.57;;;1.35;;
72437;SDS011;60444;43.534;-5.674;2023-12-22T08:15:07;5.60;;;1.33;;
72437;SDS011;60444;43.534;-5.674;2023-12-22T08:17:35;8.85;;;1.25;;
72437;SDS011;60444;43.534;-5.674;2023-12-22T08:20:05;6.05;;;1.30;;
72437;SDS011;60444;43.534;-5.674;2023-12-22T08:22:33;10.18;;;1.50;;
72437;SDS011;60444;43.534;-5.674;2023-12-22T08:24:59;5.73;;;1.23;;
72437;SDS011;60444;43.534;-5.674;2023-12-22T08:27:24;8.25;;;1.50;;
72437;SDS011;60444;43.534;-5.674;2023-12-22T08:29:50;6.47;;;1.60;;
72437;SDS011;60444;43.534;-5.674;2023-12-22T08:32:15;10.80;;;1.87;;
72437;SDS011;60444;43.534;-5.674;2023-12-22T08:34:41;7.67;;;1.33;;
72437;SDS011;60444;43.534;-5.674;2023-12-22T08:37:06;9.97;;;1.50;;
72437;SDS011;60444;43.534;-5.674;2023-12-22T08:39:32;7.83;;;1.20;;
72437;SDS011;60444;43.534;-5.674;2023-12-22T08:41:57;6.47;;;1.20;;
72437;SDS011;60444;43.534;-5.674;2023-12-22T08:44:23;6.63;;;1.35;;
72437;SDS011;60444;43.534;-5.674;2023-12-22T08:46:48;7.20;;;1.37;;
72437;SDS011;60444;43.534;-5.674;2023-12-22T08:49:13;7.13;;;1.23;;
72437;SDS011;60444;43.534;-5.674;2023-12-22T08:51:39;6.40;;;1.10;;
72437;SDS011;60444;43.534;-5.674;2023-12-22T08:54:04;7.95;;;1.42;;
72437;SDS011;60444;43.534;-5.674;2023-12-22T08:56:30;7.53;;;1.27;;
72437;SDS011;60444;43.534;-5.674;2023-12-22T08:58:56;9.43;;;1.70;;
72437;SDS011;60444;43.534;-5.674;2023-12-22T09:01:23;7.93;;;1.73;;
72437;SDS011;60444;43.534;-5.674;2023-12-22T09:03:49;8.48;;;1.50;;
72437;SDS011;60444;43.534;-5.674;2023-12-22T09:06:15;7.93;;;1.50;;
72437;SDS011;60444;43.534;-5.674;2023-12-22T09:08:42;8.70;;;1.80;;
72437;SDS011;60444;43.534;-5.674;2023-12-22T09:11:10;6.28;;;1.15;;
72437;SDS011;60444;43.534;-5.674;2023-12-22T09:13:40;9.20;;;1.20;;
72437;SDS011;60444;43.534;-5.674;2023-12-22T09:16:06;9.68;;;1.42;;
72437;SDS011;60444;43.534;-5.674;2023-12-22T09:18:32;8.57;;;1.70;;
72437;SDS011;60444;43.534;-5.674;2023-12-22T09:20:58;9.13;;;1.40;;
72437;SDS011;60444;43.534;-5.674;2023-12-22T09:23:24;7.40;;;1.40;;
72437;SDS011;60444;43.534;-5.674;2023-12-22T09:25:50;7.38;;;1.30;;
72437;SDS011;60444;43.534;-5.674;2023-12-22T09:28:15;9.70;;;1.53;;
72437;SDS011;60444;43.534;-5.674;2023-12-22T09:30:41;7.97;;;1.60;;
72437;SDS011;60444;43.534;-5.674;2023-12-22T09:33:09;10.75;;;1.80;;
72437;SDS011;60444;43.534;-5.674;2023-12-22T09:35:35;8.02;;;1.33;;
72437;SDS011;60444;43.534;-5.674;2023-12-22T09:38:01;7.20;;;1.43;;
72437;SDS011;60444;43.534;-5.674;2023-12-22T09:40:27;7.32;;;1.50;;
72437;SDS011;60444;43.534;-5.674;2023-12-22T09:42:54;6.13;;;1.40;;
72437;SDS011;60444;43.534;-5.674;2023-12-22T09:45:20;6.83;;;1.57;;
72437;SDS011;60444;43.534;-5.674;2023-12-22T09:47:47;10.80;;;1.95;;
72437;SDS011;60444;43.534;-5.674;2023-12-22T09:50:14;8.93;;;1.80;;
72437;SDS011;60444;43.534;-5.674;2023-12-22T09:52:41;11.13;;;2.38;;
72437;SDS011;60444;43.534;-5.674;2023-12-22T09:55:09;14.88;;;3.45;;
72437;SDS011;60444;43.534;-5.674;2023-12-22T09:57:35;18.27;;;3.40;;
72437;SDS011;60444;43.534;-5.674;2023-12-22T10:00:06;11.77;;;2.17;;
72437;SDS011;60444;43.534;-5.674;2023-12-22T10:02:34;17.27;;;3.65;;
72437;SDS011;60444;43.534;-5.674;2023-12-22T10:05:02;13.82;;;2.67;;
72437;SDS011;60444;43.534;-5.674;2023-12-22T10:07:27;19.40;;;3.60;;
72437;SDS011;60444;43.534;-5.674;2023-12-22T10:09:55;20.27;;;2.40;;
72437;SDS011;60444;43.534;-5.674;2023-12-22T10:12:21;12.13;;;2.28;;
72437;SDS011;60444;43.534;-5.674;2023-12-22T10:14:48;7.57;;;1.52;;
72437;SDS011;60444;43.534;-5.674;2023-12-22T10:17:14;11.05;;;2.03;;
72437;SDS011;60444;43.534;-5.674;2023-12-22T10:19:41;11.13;;;2.33;;
72437;SDS011;60444;43.534;-5.674;2023-12-22T10:22:07;8.75;;;2.05;;
72437;SDS011;60444;43.534;-5.674;2023-12-22T10:27:07;11.43;;;2.13;;
72437;SDS011;60444;43.534;-5.674;2023-12-22T10:29:34;7.50;;;1.90;;
72437;SDS011;60444;43.534;-5.674;2023-12-22T10:32:00;9.93;;;1.70;;
72437;SDS011;60444;43.534;-5.674;2023-12-22T10:34:26;9.63;;;2.00;;
72437;SDS011;60444;43.534;-5.674;2023-12-22T10:36:52;10.97;;;2.17;;
72437;SDS011;60444;43.534;-5.674;2023-12-22T10:39:17;8.10;;;1.33;;
72437;SDS011;60444;43.534;-5.674;2023-12-22T10:41:43;13.70;;;3.03;;
72437;SDS011;60444;43.534;-5.674;2023-12-22T10:44:09;10.90;;;2.38;;
72437;SDS011;60444;43.534;-5.674;2023-12-22T10:46:35;11.83;;;2.13;;
72437;SDS011;60444;43.534;-5.674;2023-12-22T10:49:01;10.95;;;2.20;;
72437;SDS011;60444;43.534;-5.674;2023-12-22T10:51:29;9.02;;;1.90;;
72437;SDS011;60444;43.534;-5.674;2023-12-22T10:53:57;9.50;;;1.90;;
72437;SDS011;60444;43.534;-5.674;2023-12-22T10:56:24;19.57;;;4.20;;
72437;SDS011;60444;43.534;-5.674;2023-12-22T10:58:50;17.65;;;3.38;;
72437;SDS011;60444;43.534;-5.674;2023-12-22T11:01:17;16.38;;;3.38;;
72437;SDS011;60444;43.534;-5.674;2023-12-22T11:03:45;19.27;;;3.97;;
72437;SDS011;60444;43.534;-5.674;2023-12-22T11:06:15;20.15;;;3.53;;
72437;SDS011;60444;43.534;-5.674;2023-12-22T11:08:41;15.93;;;6.90;;
72437;SDS011;60444;43.534;-5.674;2023-12-22T11:11:20;23.17;;;7.78;;
72437;SDS011;60444;43.534;-5.674;2023-12-22T11:14:05;22.10;;;8.20;;
72437;SDS011;60444;43.534;-5.674;2023-12-22T11:16:32;13.10;;;4.03;;
72437;SDS011;60444;43.534;-5.674;2023-12-22T11:18:59;12.88;;;3.63;;
72437;SDS011;60444;43.534;-5.674;2023-12-22T11:21:29;11.07;;;2.50;;
72437;SDS011;60444;43.534;-5.674;2023-12-22T11:23:55;14.05;;;3.70;;
72437;SDS011;60444;43.534;-5.674;2023-12-22T11:26:22;18.40;;;4.35;;
72437;SDS011;60444;43.534;-5.674;2023-12-22T11:28:49;8.60;;;2.50;;
72437;SDS011;60444;43.534;-5.674;2023-12-22T11:31:16;9.00;;;1.45;;
72437;SDS011;60444;43.534;-5.674;2023-12-22T11:33:44;8.90;;;1.50;;
72437;SDS011;60444;43.534;-5.674;2023-12-22T11:36:13;11.57;;;2.30;;
72437;SDS011;60444;43.534;-5.674;2023-12-22T11:38:42;11.38;;;1.85;;
72437;SDS011;60444;43.534;-5.674;2023-12-22T11:41:17;9.82;;;1.60;;
72437;SDS011;60444;43.534;-5.674;2023-12-22T11:43:46;9.63;;;1.48;;
72437;SDS011;60444;43.534;-5.674;2023-12-22T11:46:12;10.23;;;2.03;;
72437;SDS011;60444;43.534;-5.674;2023-12-22T11:48:48;11.57;;;1.80;;
72437;SDS011;60444;43.534;-5.674;2023-12-22T11:51:14;12.68;;;1.77;;
72437;SDS011;60444;43.534;-5.674;2023-12-22T11:53:41;9.98;;;2.25;;
72437;SDS011;60444;43.534;-5.674;2023-12-22T11:56:08;14.07;;;2.10;;
72437;SDS011;60444;43.534;-5.674;2023-12-22T12:01:16;11.00;;;1.60;;
72437;SDS011;60444;43.534;-5.674;2023-12-22T12:03:52;12.02;;;1.55;;
72437;SDS011;60444;43.534;-5.674;2023-12-22T12:08:50;11.32;;;1.85;;
72437;SDS011;60444;43.534;-5.674;2023-12-22T12:11:16;9.23;;;1.80;;
72437;SDS011;60444;43.534;-5.674;2023-12-22T12:13:43;11.82;;;1.90;;
72437;SDS011;60444;43.534;-5.674;2023-12-22T12:16:10;12.10;;;1.85;;
72437;SDS011;60444;43.534;-5.674;2023-12-22T12:18:40;12.35;;;2.10;;
72437;SDS011;60444;43.534;-5.674;2023-12-22T12:21:12;14.40;;;1.95;;
72437;SDS011;60444;43.534;-5.674;2023-12-22T12:23:40;18.30;;;2.60;;
72437;SDS011;60444;43.534;-5.674;2023-12-22T12:26:06;14.10;;;2.15;;
72437;SDS011;60444;43.534;-5.674;2023-12-22T12:28:35;13.10;;;2.15;;
72437;SDS011;60444;43.534;-5.674;2023-12-22T12:31:05;14.93;;;2.15;;
72437;SDS011;60444;43.534;-5.674;2023-12-22T12:33:31;14.53;;;2.80;;
72437;SDS011;60444;43.534;-5.674;2023-12-22T12:35:58;11.77;;;2.25;;
72437;SDS011;60444;43.534;-5.674;2023-12-22T12:38:45;13.35;;;2.45;;
72437;SDS011;60444;43.534;-5.674;2023-12-22T12:41:22;11.85;;;1.85;;
72437;SDS011;60444;43.534;-5.674;2023-12-22T12:43:58;9.98;;;1.40;;
72437;SDS011;60444;43.534;-5.674;2023-12-22T12:46:37;10.90;;;1.50;;
72437;SDS011;60444;43.534;-5.674;2023-12-22T12:49:10;9.10;;;1.23;;
72437;SDS011;60444;43.534;-5.674;2023-12-22T12:51:40;9.60;;;1.10;;
72437;SDS011;60444;43.534;-5.674;2023-12-22T12:54:08;11.80;;;1.42;;
72437;SDS011;60444;43.534;-5.674;2023-12-22T12:56:38;8.63;;;1.30;;
72437;SDS011;60444;43.534;-5.674;2023-12-22T12:59:11;7.93;;;2.80;;
72437;SDS011;60444;43.534;-5.674;2023-12-22T13:01:42;7.30;;;1.33;;
72437;SDS011;60444;43.534;-5.674;2023-12-22T13:04:09;10.25;;;1.42;;
72437;SDS011;60444;43.534;-5.674;2023-12-22T13:06:42;8.45;;;0.90;;
72437;SDS011;60444;43.534;-5.674;2023-12-22T13:09:11;8.52;;;1.20;;
72437;SDS011;60444;43.534;-5.674;2023-12-22T13:11:38;6.60;;;0.87;;
72437;SDS011;60444;43.534;-5.674;2023-12-22T13:14:07;10.00;;;1.70;;
72437;SDS011;60444;43.534;-5.674;2023-12-22T13:16:33;6.18;;;1.00;;
72437;SDS011;60444;43.534;-5.674;2023-12-22T13:18:59;6.60;;;0.90;;
72437;SDS011;60444;43.534;-5.674;2023-12-22T13:21:25;9.33;;;1.27;;
72437;SDS011;60444;43.534;-5.674;2023-12-22T13:24:11;6.57;;;1.00;;
72437;SDS011;60444;43.534;-5.674;2023-12-22T13:26:39;6.55;;;1.00;;
72437;SDS011;60444;43.534;-5.674;2023-12-22T13:29:05;7.63;;;1.10;;
72437;SDS011;60444;43.534;-5.674;2023-12-22T13:31:32;7.45;;;1.00;;
72437;SDS011;60444;43.534;-5.674;2023-12-22T13:33:58;6.93;;;1.20;;
72437;SDS011;60444;43.534;-5.674;2023-12-22T13:36:25;7.80;;;1.10;;
72437;SDS011;60444;43.534;-5.674;2023-12-22T13:38:51;8.25;;;1.50;;
72437;SDS011;60444;43.534;-5.674;2023-12-22T13:41:17;10.88;;;1.65;;
72437;SDS011;60444;43.534;-5.674;2023-12-22T13:43:43;11.73;;;1.70;;
72437;SDS011;60444;43.534;-5.674;2023-12-22T13:46:14;17.05;;;6.55;;
72437;SDS011;60444;43.534;-5.674;2023-12-22T13:48:40;13.18;;;5.07;;
72437;SDS011;60444;43.534;-5.674;2023-12-22T13:51:06;16.30;;;5.93;;
72437;SDS011;60444;43.534;-5.674;2023-12-22T13:53:32;13.05;;;4.85;;
72437;SDS011;60444;43.534;-5.674;2023-12-22T13:55:58;12.57;;;4.00;;
72437;SDS011;60444;43.534;-5.674;2023-12-22T13:58:24;14.88;;;3.28;;
72437;SDS011;60444;43.534;-5.674;2023-12-22T14:00:50;12.65;;;2.88;;
72437;SDS011;60444;43.534;-5.674;2023-12-22T14:03:16;11.05;;;2.83;;
72437;SDS011;60444;43.534;-5.674;2023-12-22T14:05:42;9.57;;;3.23;;
72437;SDS011;60444;43.534;-5.674;2023-12-22T14:08:08;13.40;;;4.07;;
72437;SDS011;60444;43.534;-5.674;2023-12-22T14:10:34;14.38;;;5.10;;
72437;SDS011;60444;43.534;-5.674;2023-12-22T14:13:00;18.30;;;5.43;;
72437;SDS011;60444;43.534;-5.674;2023-12-22T14:15:25;16.33;;;4.53;;
72437;SDS011;60444;43.534;-5.674;2023-12-22T14:17:54;14.45;;;3.90;;
72437;SDS011;60444;43.534;-5.674;2023-12-22T14:20:20;12.35;;;4.20;;
72437;SDS011;60444;43.534;-5.674;2023-12-22T14:22:46;13.47;;;3.10;;
72437;SDS011;60444;43.534;-5.674;2023-12-22T14:25:11;17.23;;;3.33;;
72437;SDS011;60444;43.534;-5.674;2023-12-22T14:27:37;13.53;;;1.97;;
72437;SDS011;60444;43.534;-5.674;2023-12-22T14:30:03;9.80;;;2.13;;
72437;SDS011;60444;43.534;-5.674;2023-12-22T14:32:31;12.48;;;1.77;;
72437;SDS011;60444;43.534;-5.674;2023-12-22T14:34:57;9.25;;;1.58;;
72437;SDS011;60444;43.534;-5.674;2023-12-22T14:37:22;14.10;;;2.10;;
72437;SDS011;60444;43.534;-5.674;2023-12-22T14:39:48;9.47;;;1.90;;
72437;SDS011;60444;43.534;-5.674;2023-12-22T14:42:13;13.83;;;1.90;;
72437;SDS011;60444;43.534;-5.674;2023-12-22T14:44:39;11.18;;;2.22;;
72437;SDS011;60444;43.534;-5.674;2023-12-22T14:47:05;9.90;;;1.88;;